createdAt,value
2019-05-07T00:01:08.486Z,9.33
2019-05-07T00:03:36.562Z,6.33
2019-05-07T00:06:04.864Z,5.27
2019-05-07T00:08:33.026Z,4.90
2019-05-07T00:11:02.320Z,6.27
2019-05-07T00:13:30.620Z,9.17
2019-05-07T00:15:58.502Z,8.70
2019-05-07T00:18:26.080Z,7.57
2019-05-07T00:20:54.351Z,7.30
2019-05-07T00:23:23.196Z,8.57
2019-05-07T00:25:52.958Z,10.27
2019-05-07T00:28:23.042Z,9.50
2019-05-07T00:30:52.124Z,9.27
2019-05-07T00:33:22.707Z,12.87
2019-05-07T00:36:02.976Z,11.47
2019-05-07T00:38:33.486Z,9.07
2019-05-07T00:41:14.109Z,6.50
2019-05-07T00:43:43.380Z,7.20
2019-05-07T00:46:17.421Z,9.57
2019-05-07T00:48:45.476Z,7.80
2019-05-07T00:51:42.634Z,8.40
2019-05-07T00:54:12.280Z,8.20
2019-05-07T00:56:42.715Z,5.70
2019-05-07T00:59:12.910Z,8.40
2019-05-07T01:01:43.205Z,7.83
2019-05-07T01:04:11.996Z,6.80
2019-05-07T01:06:42.303Z,8.07
2019-05-07T01:09:12.315Z,10.27
2019-05-07T01:11:42.733Z,6.83
2019-05-07T01:14:12.389Z,6.90
2019-05-07T01:16:42.099Z,7.37
2019-05-07T01:19:12.579Z,7.57
2019-05-07T01:21:43.070Z,8.97
2019-05-07T01:24:12.406Z,6.67
2019-05-07T01:26:42.516Z,7.57
2019-05-07T01:29:10.151Z,7.50
2019-05-07T01:31:43.947Z,7.47
2019-05-07T01:34:27.417Z,7.40
2019-05-07T01:36:55.439Z,8.60
2019-05-07T01:39:23.454Z,9.40
2019-05-07T01:41:52.456Z,9.57
2019-05-07T01:44:22.150Z,8.80
2019-05-07T01:46:52.761Z,9.97
2019-05-07T01:49:20.588Z,8.50
2019-05-07T01:51:48.569Z,9.20
2019-05-07T01:54:16.749Z,8.63
2019-05-07T01:56:44.536Z,8.90
2019-05-07T01:59:12.434Z,11.37
2019-05-07T02:01:42.938Z,8.93
2019-05-07T02:04:32.777Z,8.67
2019-05-07T02:07:23.100Z,10.90
2019-05-07T02:09:58.668Z,9.97
2019-05-07T02:12:31.920Z,10.17
2019-05-07T02:14:59.911Z,11.43
2019-05-07T02:17:27.868Z,9.93
2019-05-07T02:19:55.968Z,10.30
2019-05-07T02:22:23.810Z,10.80
2019-05-07T02:24:52.480Z,11.03
2019-05-07T02:27:22.126Z,9.60
2019-05-07T02:29:52.401Z,9.93
2019-05-07T02:32:20.333Z,9.60
2019-05-07T02:34:48.271Z,9.23
2019-05-07T02:37:23.220Z,9.33
2019-05-07T02:39:58.292Z,8.70
2019-05-07T02:42:26.370Z,8.87
2019-05-07T02:45:13.318Z,9.60
2019-05-07T02:47:43.707Z,9.57
2019-05-07T02:50:19.151Z,9.63
2019-05-07T02:52:56.513Z,9.97
2019-05-07T02:55:35.104Z,9.67
2019-05-07T02:58:03.714Z,9.60
2019-05-07T03:00:33.383Z,11.13
2019-05-07T03:03:04.209Z,9.90
2019-05-07T03:05:34.578Z,13.20
2019-05-07T03:08:03.372Z,9.30
2019-05-07T03:10:33.972Z,10.10
2019-05-07T03:13:03.082Z,9.27
2019-05-07T03:15:33.170Z,9.07
2019-05-07T03:18:03.344Z,9.77
2019-05-07T03:20:38.096Z,9.83
2019-05-07T03:23:07.747Z,9.33
2019-05-07T03:26:13.651Z,9.50
2019-05-07T03:29:13.009Z,9.27
2019-05-07T03:31:56.414Z,8.63
2019-05-07T03:34:47.151Z,9.70
2019-05-07T03:37:17.630Z,10.23
2019-05-07T03:39:45.698Z,8.20
2019-05-07T03:42:13.844Z,8.60
2019-05-07T03:44:53.594Z,9.90
2019-05-07T03:47:27.360Z,9.57
2019-05-07T03:49:55.590Z,9.40
2019-05-07T03:52:24.522Z,9.03
2019-05-07T03:54:54.023Z,13.87
2019-05-07T03:57:23.776Z,9.90
2019-05-07T03:59:53.274Z,14.17
2019-05-07T04:02:24.023Z,10.83
2019-05-07T04:04:52.932Z,8.43
2019-05-07T04:07:23.299Z,11.10
2019-05-07T04:09:53.453Z,10.20
2019-05-07T04:12:23.480Z,8.03
2019-05-07T04:14:53.332Z,12.87
2019-05-07T04:17:25.734Z,9.23
2019-05-07T04:19:53.213Z,11.07
2019-05-07T04:22:26.388Z,9.27
2019-05-07T04:25:08.846Z,12.40
2019-05-07T04:27:47.088Z,10.03
2019-05-07T04:30:14.796Z,9.10
2019-05-07T04:32:47.765Z,10.20
2019-05-07T04:35:24.354Z,10.20
2019-05-07T04:37:53.311Z,13.03
2019-05-07T04:40:24.026Z,11.03
2019-05-07T04:42:53.851Z,8.67
2019-05-07T04:45:23.134Z,8.70
2019-05-07T04:47:53.832Z,10.23
2019-05-07T04:50:42.025Z,12.50
2019-05-07T04:52:56.089Z,12.20
2019-05-07T04:55:24.432Z,11.63
2019-05-07T04:57:53.379Z,12.40
2019-05-07T05:00:22.977Z,8.20
2019-05-07T05:03:13.564Z,12.20
2019-05-07T05:05:43.550Z,13.13
2019-05-07T05:08:13.390Z,11.10
2019-05-07T05:10:43.350Z,14.70
2019-05-07T05:13:12.972Z,16.43
2019-05-07T05:15:43.135Z,11.77
2019-05-07T05:18:12.752Z,12.60
2019-05-07T05:21:02.641Z,14.27
2019-05-07T05:23:42.448Z,10.77
2019-05-07T05:26:12.484Z,12.23
2019-05-07T05:28:41.902Z,9.90
2019-05-07T05:31:09.921Z,10.00
2019-05-07T05:33:37.825Z,12.10
2019-05-07T05:36:05.811Z,10.63
2019-05-07T05:38:33.853Z,11.87
2019-05-07T05:41:02.763Z,12.57
2019-05-07T05:43:39.069Z,11.50
2019-05-07T05:46:07.208Z,11.50
2019-05-07T05:48:35.182Z,10.00
2019-05-07T05:51:25.529Z,11.37
2019-05-07T05:53:57.836Z,10.57
2019-05-07T05:56:32.460Z,12.97
2019-05-07T05:59:37.051Z,10.70
2019-05-07T06:02:27.145Z,11.17
2019-05-07T06:05:05.374Z,18.17
2019-05-07T06:07:42.761Z,17.00
2019-05-07T06:10:42.512Z,14.17
2019-05-07T06:13:35.840Z,16.13
2019-05-07T06:16:13.403Z,14.03
2019-05-07T06:19:04.168Z,20.67
2019-05-07T06:21:52.678Z,22.30
2019-05-07T06:24:32.194Z,26.20
2019-05-07T06:27:00.235Z,20.83
2019-05-07T06:29:28.411Z,23.27
2019-05-07T06:32:02.833Z,21.63
2019-05-07T06:34:31.049Z,17.70
2019-05-07T06:36:59.330Z,16.27
2019-05-07T06:39:32.753Z,17.83
2019-05-07T06:42:18.818Z,17.83
2019-05-07T06:45:02.940Z,17.93
2019-05-07T06:47:32.428Z,15.33
2019-05-07T06:50:00.334Z,13.57
2019-05-07T06:52:28.459Z,13.77
2019-05-07T06:54:56.655Z,12.97
2019-05-07T06:57:26.468Z,14.83
2019-05-07T06:59:59.992Z,15.47
2019-05-07T07:02:35.303Z,14.13
2019-05-07T07:05:42.562Z,14.83
2019-05-07T07:08:32.407Z,13.90
2019-05-07T07:11:19.751Z,19.60
2019-05-07T07:13:47.767Z,14.67
2019-05-07T07:16:16.221Z,9.17
2019-05-07T07:18:51.906Z,10.47
2019-05-07T07:21:14.105Z,13.57
2019-05-07T07:23:42.995Z,14.73
2019-05-07T07:26:12.633Z,9.43
2019-05-07T07:28:42.796Z,13.80
2019-05-07T07:31:31.852Z,12.27
2019-05-07T07:34:02.343Z,9.73
2019-05-07T07:36:34.195Z,12.03
2019-05-07T07:39:03.535Z,11.40
2019-05-07T07:41:45.187Z,9.63
2019-05-07T07:44:13.475Z,11.47
2019-05-07T07:46:42.522Z,9.17
2019-05-07T07:49:14.550Z,8.43
2019-05-07T07:51:44.686Z,8.20
2019-05-07T07:54:10.313Z,7.77
2019-05-07T07:56:57.191Z,9.57
2019-05-07T07:59:44.770Z,8.63
2019-05-07T08:02:23.664Z,7.63
2019-05-07T08:04:52.752Z,7.30
2019-05-07T08:07:22.670Z,5.37
2019-05-07T08:09:52.044Z,6.03
2019-05-07T08:12:22.150Z,6.10
2019-05-07T08:14:51.890Z,6.47
2019-05-07T08:17:22.169Z,5.73
2019-05-07T08:19:51.980Z,6.17
2019-05-07T08:22:22.347Z,7.20
2019-05-07T08:24:51.894Z,5.27
2019-05-07T08:27:22.174Z,5.47
2019-05-07T08:29:52.293Z,6.33
2019-05-07T08:32:37.962Z,6.10
2019-05-07T08:35:28.591Z,4.83
2019-05-07T08:37:56.801Z,5.13
2019-05-07T08:40:24.804Z,7.57
2019-05-07T08:42:53.727Z,7.83
2019-05-07T08:45:39.742Z,6.47
2019-05-07T08:48:12.666Z,4.60
2019-05-07T08:50:41.920Z,5.70
2019-05-07T08:53:10.114Z,7.07
2019-05-07T08:55:38.017Z,4.60
2019-05-07T08:58:06.200Z,4.60
2019-05-07T09:00:34.190Z,4.63
2019-05-07T09:03:02.181Z,3.43
2019-05-07T09:05:32.197Z,4.83
2019-05-07T09:08:02.099Z,4.30
2019-05-07T09:10:32.309Z,6.33
2019-05-07T09:13:00.166Z,3.63
2019-05-07T09:15:28.271Z,3.53
2019-05-07T09:17:56.572Z,4.40
2019-05-07T09:20:24.540Z,4.20
2019-05-07T09:22:52.407Z,4.57
2019-05-07T09:25:22.142Z,3.90
2019-05-07T09:27:52.397Z,3.97
2019-05-07T09:30:29.969Z,3.90
2019-05-07T09:33:09.344Z,7.80
2019-05-07T09:35:42.371Z,3.37
2019-05-07T09:38:12.181Z,4.03
2019-05-07T09:40:42.133Z,3.52
2019-05-07T09:43:11.723Z,3.40
2019-05-07T09:45:42.027Z,3.47
2019-05-07T09:48:12.010Z,4.75
2019-05-07T09:50:42.716Z,3.00
2019-05-07T09:53:12.541Z,3.58
2019-05-07T09:55:42.368Z,3.27
2019-05-07T09:58:12.555Z,3.35
2019-05-07T10:00:42.453Z,3.37
2019-05-07T10:03:12.602Z,4.42
2019-05-07T10:05:42.794Z,6.87
2019-05-07T10:08:12.785Z,3.62
2019-05-07T10:10:41.692Z,3.70
2019-05-07T10:13:25.797Z,4.00
2019-05-07T10:15:53.908Z,3.30
2019-05-07T10:18:22.860Z,3.47
2019-05-07T10:20:52.167Z,3.50
2019-05-07T10:23:22.402Z,5.25
2019-05-07T10:25:52.018Z,3.52
2019-05-07T10:28:22.579Z,3.85
2019-05-07T10:30:52.127Z,5.45
2019-05-07T10:33:20.254Z,3.67
2019-05-07T10:35:48.555Z,3.30
2019-05-07T10:38:16.447Z,3.35
2019-05-07T10:40:44.687Z,4.62
2019-05-07T10:43:12.955Z,3.70
2019-05-07T10:46:07.213Z,3.30
2019-05-07T10:48:45.930Z,5.10
2019-05-07T10:51:14.255Z,3.40
2019-05-07T10:53:42.547Z,6.87
2019-05-07T10:56:11.827Z,4.20
2019-05-07T10:58:41.755Z,4.83
2019-05-07T11:01:12.025Z,5.15
2019-05-07T11:03:41.941Z,3.72
2019-05-07T11:06:11.877Z,3.50
2019-05-07T11:08:39.945Z,3.47
2019-05-07T11:11:07.851Z,3.60
2019-05-07T11:13:36.817Z,3.70
2019-05-07T11:16:08.521Z,3.70
2019-05-07T11:18:45.323Z,3.75
2019-05-07T11:21:13.595Z,4.25
2019-05-07T11:23:42.015Z,3.40
2019-05-07T11:26:11.774Z,4.17
2019-05-07T11:28:40.150Z,3.10
2019-05-07T11:31:08.028Z,5.08
2019-05-07T11:33:36.108Z,3.37
2019-05-07T11:36:04.565Z,3.75
2019-05-07T11:38:33.570Z,3.27
2019-05-07T11:41:02.289Z,3.55
2019-05-07T11:43:55.980Z,3.42
2019-05-07T11:46:44.404Z,3.27
2019-05-07T11:49:35.479Z,3.95
2019-05-07T11:52:08.001Z,4.12
2019-05-07T11:54:36.045Z,5.30
2019-05-07T11:57:04.096Z,4.03
2019-05-07T11:59:32.688Z,4.30
2019-05-07T12:02:02.609Z,2.80
2019-05-07T12:04:31.987Z,3.67
2019-05-07T12:07:02.432Z,4.22
2019-05-07T12:09:30.668Z,4.10
2019-05-07T12:11:58.690Z,4.53
2019-05-07T12:14:31.517Z,3.25
2019-05-07T12:16:56.716Z,4.75
2019-05-07T12:19:24.741Z,5.05
2019-05-07T12:21:52.852Z,3.62
2019-05-07T12:24:22.334Z,4.42
2019-05-07T12:26:52.285Z,3.25
2019-05-07T12:29:22.067Z,5.45
2019-05-07T12:31:58.800Z,3.85
2019-05-07T12:34:47.873Z,4.37
2019-05-07T12:37:16.106Z,3.57
2019-05-07T12:39:44.335Z,5.47
2019-05-07T12:42:12.416Z,5.40
2019-05-07T12:44:42.607Z,3.30
2019-05-07T12:47:12.079Z,4.67
2019-05-07T12:49:40.397Z,5.17
2019-05-07T12:52:22.771Z,4.03
2019-05-07T12:55:13.134Z,4.10
2019-05-07T12:57:42.077Z,5.33
2019-05-07T13:00:29.508Z,3.93
2019-05-07T13:03:26.119Z,5.20
2019-05-07T13:05:53.801Z,5.50
2019-05-07T13:08:23.061Z,3.60
2019-05-07T13:10:52.460Z,5.60
2019-05-07T13:13:20.638Z,4.20
2019-05-07T13:15:48.893Z,3.50
2019-05-07T13:18:16.585Z,4.93
2019-05-07T13:20:44.543Z,5.93
2019-05-07T13:23:12.829Z,4.13
2019-05-07T13:25:42.784Z,4.20
2019-05-07T13:28:11.880Z,4.53
2019-05-07T13:30:43.603Z,3.90
2019-05-07T13:33:12.182Z,4.40
2019-05-07T13:35:42.050Z,3.77
2019-05-07T13:38:48.443Z,9.90
2019-05-07T13:41:38.654Z,4.13
2019-05-07T13:44:13.760Z,4.40
2019-05-07T13:46:44.786Z,4.60
2019-05-07T13:49:12.506Z,3.60
2019-05-07T13:51:41.812Z,4.87
2019-05-07T13:54:12.696Z,6.43
2019-05-07T13:56:41.959Z,3.50
2019-05-07T13:59:13.146Z,4.93
2019-05-07T14:02:00.216Z,5.33
2019-05-07T14:04:28.289Z,5.03
2019-05-07T14:06:58.343Z,3.93
2019-05-07T14:09:26.476Z,3.93
2019-05-07T14:11:54.400Z,4.57
2019-05-07T14:14:22.860Z,4.93
2019-05-07T14:16:53.099Z,4.63
2019-05-07T14:19:22.466Z,3.27
2019-05-07T14:21:52.550Z,7.10
2019-05-07T14:24:22.339Z,3.23
2019-05-07T14:26:52.536Z,5.43
2019-05-07T14:29:24.466Z,7.70
2019-05-07T14:32:02.162Z,8.47
2019-05-07T14:34:35.251Z,5.30
2019-05-07T14:37:12.918Z,5.10
2019-05-07T14:39:42.535Z,5.97
2019-05-07T14:42:14.363Z,5.73
2019-05-07T14:44:49.037Z,4.13
2019-05-07T14:47:18.055Z,4.80
2019-05-07T14:49:47.633Z,4.23
2019-05-07T14:52:22.646Z,4.00
2019-05-07T14:54:45.426Z,4.20
2019-05-07T14:57:13.286Z,3.73
2019-05-07T14:59:42.755Z,4.20
2019-05-07T15:02:12.059Z,4.10
2019-05-07T15:04:41.935Z,3.70
2019-05-07T15:07:12.046Z,3.30
2019-05-07T15:09:41.950Z,6.07
2019-05-07T15:12:12.467Z,3.87
2019-05-07T15:14:42.028Z,4.30
2019-05-07T15:17:18.976Z,5.83
2019-05-07T15:19:47.039Z,6.30
2019-05-07T15:22:46.289Z,6.43
2019-05-07T15:25:03.056Z,5.17
2019-05-07T15:27:32.285Z,4.80
2019-05-07T15:30:02.283Z,5.13
2019-05-07T15:32:32.290Z,6.27
2019-05-07T15:35:02.165Z,3.13
2019-05-07T15:37:32.023Z,3.63
2019-05-07T15:40:02.237Z,4.93
2019-05-07T15:42:29.601Z,3.63
2019-05-07T15:44:57.563Z,4.67
2019-05-07T15:47:31.857Z,6.80
2019-05-07T15:49:59.961Z,4.17
2019-05-07T15:53:02.556Z,4.47
2019-05-07T15:55:30.491Z,5.50
2019-05-07T15:57:58.872Z,5.93
2019-05-07T16:00:27.963Z,7.17
2019-05-07T16:03:02.658Z,4.83
2019-05-07T16:05:31.870Z,5.13
2019-05-07T16:08:01.772Z,3.90
2019-05-07T16:10:32.187Z,4.87
2019-05-07T16:13:00.033Z,3.30
2019-05-07T16:15:28.063Z,3.43
2019-05-07T16:18:00.006Z,5.40
2019-05-07T16:20:28.088Z,4.80
2019-05-07T16:23:12.092Z,5.10
2019-05-07T16:25:29.714Z,3.60
2019-05-07T16:27:57.723Z,4.37
2019-05-07T16:30:25.962Z,4.97
2019-05-07T16:32:55.399Z,4.10
2019-05-07T16:35:23.390Z,4.43
2019-05-07T16:37:52.236Z,3.20
2019-05-07T16:40:22.800Z,4.30
2019-05-07T16:42:52.410Z,6.40
2019-05-07T16:45:20.703Z,2.93
2019-05-07T16:47:48.590Z,4.47
2019-05-07T16:50:16.912Z,4.03
2019-05-07T16:52:45.011Z,3.63
2019-05-07T16:55:13.294Z,5.03
2019-05-07T16:58:03.728Z,5.50
2019-05-07T17:00:53.051Z,5.77
2019-05-07T17:03:25.031Z,5.20
2019-05-07T17:05:52.978Z,4.27
2019-05-07T17:08:32.003Z,12.03
2019-05-07T17:11:00.071Z,5.33
2019-05-07T17:13:28.148Z,5.53
2019-05-07T17:15:57.196Z,4.23
2019-05-07T17:18:26.164Z,5.47
2019-05-07T17:20:54.203Z,6.43
2019-05-07T17:23:22.667Z,5.83
2019-05-07T17:25:52.573Z,5.97
2019-05-07T17:28:22.716Z,8.37
2019-05-07T17:30:52.472Z,5.83
2019-05-07T17:33:22.984Z,5.93
2019-05-07T17:35:52.238Z,6.03
2019-05-07T17:38:20.271Z,4.83
2019-05-07T17:40:48.361Z,7.33
2019-05-07T17:43:16.553Z,4.57
2019-05-07T17:45:44.516Z,5.30
2019-05-07T17:48:12.660Z,6.17
2019-05-07T17:50:58.746Z,8.00
2019-05-07T17:53:28.420Z,6.13
2019-05-07T17:55:56.463Z,4.93
2019-05-07T17:58:24.603Z,7.73
2019-05-07T18:00:56.283Z,5.93
2019-05-07T18:03:32.334Z,7.63
2019-05-07T18:06:02.404Z,8.97
2019-05-07T18:08:32.478Z,8.07
2019-05-07T18:11:02.261Z,5.77
2019-05-07T18:13:32.529Z,6.63
2019-05-07T18:16:07.701Z,5.00
2019-05-07T18:18:35.848Z,5.47
2019-05-07T18:21:05.199Z,5.40
2019-05-07T18:23:34.824Z,6.73
2019-05-07T18:26:03.487Z,10.27
2019-05-07T18:28:32.574Z,7.37
2019-05-07T18:31:02.011Z,5.73
2019-05-07T18:33:44.994Z,7.63
2019-05-07T18:36:13.186Z,7.37
2019-05-07T18:38:42.425Z,7.77
2019-05-07T18:41:12.213Z,7.40
2019-05-07T18:43:42.202Z,6.53
2019-05-07T18:46:12.631Z,7.10
2019-05-07T18:48:42.441Z,6.27
2019-05-07T18:51:12.195Z,5.23
2019-05-07T18:53:42.577Z,6.33
2019-05-07T18:56:12.617Z,8.30
2019-05-07T18:58:42.584Z,7.17
2019-05-07T19:01:11.903Z,6.97
2019-05-07T19:03:41.821Z,5.73
2019-05-07T19:06:10.725Z,9.27
2019-05-07T19:08:38.813Z,15.03
2019-05-07T19:11:06.906Z,9.07
2019-05-07T19:13:34.856Z,5.40
2019-05-07T19:16:03.032Z,9.20
2019-05-07T19:18:32.213Z,6.23
2019-05-07T19:21:00.627Z,5.20
2019-05-07T19:23:29.816Z,5.43
2019-05-07T19:25:57.877Z,6.73
2019-05-07T19:28:25.550Z,5.73
2019-05-07T19:30:53.611Z,7.50
2019-05-07T19:33:26.510Z,6.03
2019-05-07T19:35:52.807Z,5.53
2019-05-07T19:38:20.985Z,7.43
2019-05-07T19:40:48.977Z,5.93
2019-05-07T19:43:16.906Z,6.10
2019-05-07T19:45:45.152Z,7.20
2019-05-07T19:48:13.193Z,4.70
2019-05-07T19:50:42.059Z,6.47
2019-05-07T19:53:12.366Z,7.27
2019-05-07T19:55:57.472Z,5.00
2019-05-07T19:58:25.341Z,5.03
2019-05-07T20:00:56.988Z,4.77
2019-05-07T20:03:23.825Z,7.27
2019-05-07T20:05:52.496Z,5.93
2019-05-07T20:08:22.311Z,6.83
2019-05-07T20:10:56.518Z,6.27
2019-05-07T20:13:27.215Z,6.43
2019-05-07T20:16:05.349Z,9.80
2019-05-07T20:18:33.612Z,6.83
2019-05-07T20:21:02.694Z,8.40
2019-05-07T20:23:32.821Z,6.43
2019-05-07T20:26:02.986Z,6.30
2019-05-07T20:28:32.706Z,5.80
2019-05-07T20:31:00.848Z,5.63
2019-05-07T20:33:28.917Z,6.83
2019-05-07T20:35:56.828Z,6.43
2019-05-07T20:38:24.867Z,6.77
2019-05-07T20:40:52.891Z,8.53
2019-05-07T20:43:22.990Z,6.77
2019-05-07T20:45:51.865Z,6.03
2019-05-07T20:48:22.691Z,7.60
2019-05-07T20:50:52.083Z,6.73
2019-05-07T20:53:39.387Z,8.13
2019-05-07T20:56:07.271Z,7.03
2019-05-07T20:58:35.296Z,8.33
2019-05-07T21:01:03.174Z,8.27
2019-05-07T21:03:32.465Z,6.70
2019-05-07T21:06:02.274Z,8.57
2019-05-07T21:08:32.090Z,7.70
2019-05-07T21:11:02.509Z,8.87
2019-05-07T21:13:34.142Z,9.47
2019-05-07T21:16:00.418Z,10.50
2019-05-07T21:18:28.661Z,7.53
2019-05-07T21:20:56.839Z,9.67
2019-05-07T21:23:24.741Z,7.70
2019-05-07T21:25:53.215Z,6.87
2019-05-07T21:28:21.409Z,6.93
2019-05-07T21:30:51.947Z,8.93
2019-05-07T21:33:19.339Z,8.07
2019-05-07T21:35:47.426Z,8.43
2019-05-07T21:38:15.375Z,6.67
2019-05-07T21:40:43.373Z,9.07
2019-05-07T21:43:12.297Z,8.43
2019-05-07T21:45:42.303Z,7.93
2019-05-07T21:48:10.212Z,7.70
2019-05-07T21:50:38.323Z,7.50
2019-05-07T21:53:12.228Z,7.87
2019-05-07T21:56:02.192Z,9.07
2019-05-07T21:58:42.962Z,7.07
2019-05-07T22:01:24.575Z,8.70
2019-05-07T22:03:53.374Z,8.67
2019-05-07T22:06:22.770Z,7.43
2019-05-07T22:08:52.527Z,11.07
2019-05-07T22:11:23.065Z,9.00
2019-05-07T22:13:52.772Z,6.50
2019-05-07T22:16:22.172Z,8.33
2019-05-07T22:18:52.201Z,7.10
2019-05-07T22:21:20.256Z,7.53
2019-05-07T22:23:48.123Z,7.30
2019-05-07T22:26:22.235Z,7.50
2019-05-07T22:28:46.343Z,8.20
2019-05-07T22:31:23.326Z,8.90
2019-05-07T22:34:29.004Z,9.47
2019-05-07T22:36:56.989Z,9.17
2019-05-07T22:39:35.944Z,9.57
2019-05-07T22:42:05.626Z,8.00
2019-05-07T22:44:33.720Z,8.37
2019-05-07T22:47:18.137Z,7.40
2019-05-07T22:49:47.150Z,8.13
2019-05-07T22:52:15.011Z,8.07
2019-05-07T22:54:43.126Z,7.00
2019-05-07T22:57:33.374Z,7.00
2019-05-07T23:00:04.504Z,8.53
2019-05-07T23:02:33.302Z,7.60
2019-05-07T23:05:02.901Z,8.47
2019-05-07T23:07:32.886Z,7.30
2019-05-07T23:10:02.834Z,7.60
2019-05-07T23:12:32.642Z,7.20
2019-05-07T23:15:02.754Z,8.03
2019-05-07T23:17:32.546Z,7.67
2019-05-07T23:20:00.153Z,8.03
2019-05-07T23:22:28.107Z,7.87
2019-05-07T23:24:56.093Z,9.33
2019-05-07T23:27:24.268Z,8.20
2019-05-07T23:29:52.931Z,7.00
2019-05-07T23:32:22.217Z,8.70
2019-05-07T23:34:52.574Z,7.50
2019-05-07T23:37:19.781Z,7.87
2019-05-07T23:39:51.848Z,8.67
2019-05-07T23:42:23.333Z,8.90
2019-05-07T23:44:52.398Z,9.17
2019-05-07T23:47:20.229Z,7.87
2019-05-07T23:49:48.255Z,8.77
2019-05-07T23:52:16.141Z,7.70
2019-05-07T23:54:44.665Z,7.40
2019-05-07T23:57:15.342Z,7.63
2019-05-07T23:59:42.694Z,7.00
